Time;durP1;ratioP1;P1;durP2;ratioP2;P2;SDS_P1;SDS_P2;PMS_P1;PMS_P2;Temp;Humidity;BMP_temperature;BMP_pressure;BME280_temperature;BME280_humidity;BME280_pressure;Samples;Min_cycle;Max_cycle;Signal;HPM_P1;HPM_P2
2024/02/18 00:02:44;;;;;;;0.55;0.25;;;6.10;99.90;;;;;;20521984;28;20057;-44
2024/02/18 00:12:46;;;;;;;0.90;0.30;;;6.10;99.90;;;;;;20519293;28;20676;-41
2024/02/18 00:22:47;;;;;;;0.60;0.28;;;6.30;99.90;;;;;;20520285;28;20234;-40
2024/02/18 00:32:49;;;;;;;2.05;0.20;;;6.30;99.90;;;;;;20518673;28;20179;-41
2024/02/18 00:42:51;;;;;;;1.08;0.20;;;6.10;99.90;;;;;;20519256;28;20037;-43
2024/02/18 00:52:53;;;;;;;1.30;0.30;;;6.00;99.90;;;;;;20520211;28;20175;-42
2024/02/18 01:02:55;;;;;;;1.63;0.30;;;6.20;99.90;;;;;;20506354;28;20171;-41
2024/02/18 01:12:56;;;;;;;0.43;0.20;;;6.40;99.90;;;;;;20521130;28;21283;-41
2024/02/18 01:22:58;;;;;;;2.60;0.40;;;6.60;99.90;;;;;;20523353;28;20598;-41
2024/02/18 01:33:00;;;;;;;2.45;0.30;;;6.70;99.90;;;;;;20532232;28;20159;-43
2024/02/18 01:43:02;;;;;;;1.38;0.50;;;6.70;99.90;;;;;;20531333;28;21868;-41
2024/02/18 01:53:04;;;;;;;1.52;0.30;;;6.70;99.90;;;;;;20529454;28;20080;-42
2024/02/18 02:03:07;;;;;;;2.47;0.50;;;7.10;99.90;;;;;;20533348;28;20132;-43
2024/02/18 02:13:09;;;;;;;2.40;0.35;;;7.10;99.90;;;;;;20530177;28;20073;-42
2024/02/18 02:23:12;;;;;;;1.42;0.40;;;6.90;99.90;;;;;;20354382;28;20133;-41
2024/02/18 02:33:14;;;;;;;0.73;0.30;;;6.90;99.90;;;;;;20335811;28;20172;-42
2024/02/18 02:43:17;;;;;;;1.17;0.32;;;6.60;99.90;;;;;;20352303;28;20046;-41
2024/02/18 02:53:19;;;;;;;0.93;0.20;;;6.40;99.90;;;;;;20492088;28;20136;-42
2024/02/18 03:03:20;;;;;;;2.25;0.38;;;6.50;99.90;;;;;;20523547;28;20132;-41
2024/02/18 03:13:22;;;;;;;1.10;0.40;;;6.70;99.90;;;;;;20523460;28;20163;-41
2024/02/18 03:23:30;;;;;;;2.13;0.30;;;6.80;99.90;;;;;;20524757;28;21125;-41
2024/02/18 03:33:31;;;;;;;1.52;0.55;;;6.80;99.90;;;;;;20523206;28;20069;-41
2024/02/18 03:43:36;;;;;;;1.85;0.60;;;6.60;99.90;;;;;;20519787;28;21035;-42
2024/02/18 03:53:38;;;;;;;3.67;0.90;;;6.30;99.90;;;;;;20520324;28;20740;-44
2024/02/18 04:03:39;;;;;;;1.92;0.75;;;6.30;99.90;;;;;;20524871;28;20136;-41
2024/02/18 04:13:41;;;;;;;2.13;0.50;;;6.30;99.90;;;;;;20518468;28;20523;-42
2024/02/18 04:23:44;;;;;;;2.17;0.57;;;6.40;99.20;;;;;;20520423;28;20128;-40
2024/02/18 04:33:46;;;;;;;3.10;0.40;;;6.30;99.80;;;;;;20518809;28;20164;-41
2024/02/18 04:43:48;;;;;;;0.70;0.40;;;6.00;99.70;;;;;;20522022;28;21657;-43
2024/02/18 04:53:49;;;;;;;1.75;0.50;;;5.80;99.90;;;;;;20518451;28;20065;-40
2024/02/18 05:03:51;;;;;;;1.88;0.40;;;5.60;99.60;;;;;;20533740;28;20176;-42
2024/02/18 05:13:53;;;;;;;1.08;0.50;;;5.40;99.60;;;;;;20535178;28;20255;-41
2024/02/18 05:23:56;;;;;;;1.08;0.50;;;5.10;99.90;;;;;;20536947;28;20095;-41
2024/02/18 05:33:58;;;;;;;2.75;0.88;;;5.00;99.90;;;;;;20532615;28;20068;-41
2024/02/18 05:44:00;;;;;;;1.10;0.40;;;4.70;99.90;;;;;;20529663;28;20041;-43
2024/02/18 05:54:02;;;;;;;0.80;0.40;;;4.40;99.90;;;;;;20529927;28;20046;-40
2024/02/18 06:04:04;;;;;;;1.40;0.45;;;4.30;99.90;;;;;;20533193;28;21788;-43
2024/02/18 06:14:05;;;;;;;1.50;0.50;;;4.10;99.90;;;;;;20533355;28;20144;-40
2024/02/18 06:24:08;;;;;;;1.60;0.50;;;3.90;99.90;;;;;;20531669;28;20116;-40
2024/02/18 06:34:09;;;;;;;1.67;0.50;;;3.80;99.90;;;;;;20530420;28;20982;-40
2024/02/18 06:44:11;;;;;;;1.38;0.50;;;3.90;99.90;;;;;;20529500;28;20159;-41
2024/02/18 06:54:13;;;;;;;1.10;0.60;;;4.10;99.90;;;;;;20524366;28;20184;-41
2024/02/18 07:04:15;;;;;;;2.25;1.00;;;4.50;99.90;;;;;;20523480;28;20783;-41
2024/02/18 07:14:17;;;;;;;2.55;0.60;;;4.90;99.90;;;;;;20526506;28;20124;-41
2024/02/18 07:24:19;;;;;;;4.60;1.10;;;5.30;99.90;;;;;;20523159;28;20098;-41
2024/02/18 07:34:26;;;;;;;3.50;1.45;;;5.80;99.90;;;;;;20522621;28;20152;-42
2024/02/18 07:44:28;;;;;;;6.47;2.35;;;6.40;99.90;;;;;;20518035;28;20179;-43
2024/02/18 07:54:30;;;;;;;5.25;2.85;;;7.30;99.90;;;;;;20519775;28;20168;-43
2024/02/18 08:04:32;;;;;;;7.97;3.03;;;8.40;99.10;;;;;;20517273;28;20159;-43
2024/02/18 08:14:33;;;;;;;8.00;3.55;;;9.30;98.10;;;;;;20515471;28;20172;-42
2024/02/18 08:24:36;;;;;;;5.85;2.60;;;10.10;97.10;;;;;;20520351;28;21215;-43
2024/02/18 08:34:39;;;;;;;7.50;3.13;;;10.70;96.10;;;;;;20519748;28;20064;-43
2024/02/18 08:44:40;;;;;;;10.48;4.50;;;11.30;95.80;;;;;;20519524;28;20299;-43
2024/02/18 08:54:43;;;;;;;10.50;5.22;;;11.80;95.20;;;;;;20512701;28;20128;-44
2024/02/18 09:04:45;;;;;;;11.90;5.88;;;12.20;95.00;;;;;;20513203;28;20250;-44
2024/02/18 09:14:47;;;;;;;16.38;7.85;;;12.40;95.20;;;;;;20517090;28;21212;-43
2024/02/18 09:24:49;;;;;;;14.93;7.13;;;12.70;95.00;;;;;;20518018;28;20201;-44
2024/02/18 09:34:54;;;;;;;10.43;5.95;;;12.80;95.10;;;;;;20515117;28;20239;-50
2024/02/18 09:44:57;;;;;;;18.55;9.05;;;13.20;93.90;;;;;;20521039;28;20184;-44
2024/02/18 09:55:00;;;;;;;15.30;8.02;;;13.30;94.60;;;;;;20521695;28;20120;-43
2024/02/18 10:05:03;;;;;;;10.82;6.03;;;13.50;94.90;;;;;;20512363;28;20167;-42
2024/02/18 10:15:07;;;;;;;18.65;9.82;;;13.50;93.40;;;;;;20525588;28;20123;-41
2024/02/18 10:25:09;;;;;;;16.70;8.07;;;14.00;94.20;;;;;;20527365;28;20287;-41
2024/02/18 10:35:11;;;;;;;20.17;9.50;;;14.00;93.20;;;;;;20527063;28;20550;-41
2024/02/18 10:45:13;;;;;;;17.15;9.57;;;13.90;93.80;;;;;;20506881;28;20145;-42
2024/02/18 10:55:30;;;;;;;18.42;9.43;;;14.40;92.80;;;;;;20524463;28;20061;-42
2024/02/18 11:05:35;;;;;;;19.52;10.35;;;14.30;93.00;;;;;;20504308;28;20263;-40
2024/02/18 11:15:37;;;;;;;19.55;10.75;;;14.40;94.50;;;;;;20524349;28;20598;-42
2024/02/18 11:25:39;;;;;;;21.77;11.63;;;15.00;92.70;;;;;;20523737;28;21250;-39
2024/02/18 11:35:41;;;;;;;21.35;10.57;;;15.00;94.60;;;;;;20518645;28;20155;-42
2024/02/18 11:45:47;;;;;;;18.90;11.43;;;15.10;93.20;;;;;;20521854;28;21158;-42
2024/02/18 11:55:48;;;;;;;22.17;12.43;;;15.10;93.40;;;;;;20519986;28;20290;-43
2024/02/18 12:05:56;;;;;;;18.23;9.65;;;15.30;93.50;;;;;;20517567;28;20188;-43
2024/02/18 12:16:07;;;;;;;12.20;7.53;;;15.30;92.80;;;;;;20519556;28;20282;-41
2024/02/18 12:26:09;;;;;;;22.80;13.75;;;15.00;91.70;;;;;;20517159;28;20162;-43
2024/02/18 12:36:11;;;;;;;27.08;16.15;;;15.20;93.70;;;;;;20516714;28;20132;-42
2024/02/18 12:46:14;;;;;;;32.80;19.40;;;15.40;93.30;;;;;;20490920;28;20115;-41
2024/02/18 12:56:16;;;;;;;32.53;21.73;;;15.20;94.90;;;;;;20519074;28;20594;-41
2024/02/18 13:06:19;;;;;;;34.30;21.10;;;15.00;94.20;;;;;;20516404;28;21198;-44
2024/02/18 13:16:23;;;;;;;35.85;24.13;;;14.60;95.40;;;;;;20516523;28;20041;-42
2024/02/18 13:26:25;;;;;;;34.15;21.38;;;14.70;94.90;;;;;;20530427;28;20132;-44
2024/02/18 13:36:27;;;;;;;43.38;27.63;;;14.00;95.60;;;;;;20533335;28;20254;-42
2024/02/18 13:46:29;;;;;;;42.50;27.80;;;13.70;96.80;;;;;;20530638;28;20180;-41
2024/02/18 13:56:32;;;;;;;48.20;30.55;;;13.20;97.40;;;;;;20530669;28;20167;-41
2024/02/18 14:06:34;;;;;;;53.97;33.22;;;12.70;98.50;;;;;;20529806;28;20122;-43
2024/02/18 14:16:36;;;;;;;48.47;30.95;;;12.20;99.90;;;;;;20529011;28;20152;-44
2024/02/18 14:26:38;;;;;;;40.83;27.25;;;11.80;99.90;;;;;;20506078;28;20810;-43
2024/02/18 14:36:42;;;;;;;57.33;36.47;;;11.60;99.90;;;;;;20526764;28;21097;-41
2024/02/18 14:46:47;;;;;;;51.78;34.08;;;11.20;99.90;;;;;;20523408;28;20053;-42
2024/02/18 14:56:49;;;;;;;57.22;37.60;;;10.80;99.90;;;;;;20509443;28;20192;-42
2024/02/18 15:06:51;;;;;;;55.45;37.47;;;10.50;99.90;;;;;;20524417;28;21642;-41
2024/02/18 15:16:53;;;;;;;49.97;35.03;;;10.20;99.90;;;;;;20525890;28;20180;-41
2024/02/18 15:26:55;;;;;;;51.90;34.58;;;9.80;99.90;;;;;;20522048;28;20136;-40
2024/02/18 15:36:57;;;;;;;51.30;35.47;;;9.50;99.90;;;;;;20517753;28;20053;-40
2024/02/18 15:47:02;;;;;;;54.38;37.20;;;9.20;99.90;;;;;;20521181;28;20711;-42
2024/02/18 15:57:07;;;;;;;56.90;38.13;;;8.90;99.90;;;;;;20520873;28;20868;-42
2024/02/18 16:07:08;;;;;;;53.88;36.55;;;8.60;99.90;;;;;;20522555;28;20850;-40
2024/02/18 16:17:10;;;;;;;60.35;38.20;;;8.30;99.90;;;;;;20515426;28;20132;-40
2024/02/18 16:27:12;;;;;;;56.20;38.55;;;8.10;99.90;;;;;;20514152;28;20137;-41
2024/02/18 16:37:14;;;;;;;62.05;39.92;;;8.00;99.90;;;;;;20519093;28;20266;-40
2024/02/18 16:47:16;;;;;;;62.47;40.60;;;7.70;99.90;;;;;;20522896;28;20176;-41
2024/02/18 16:57:21;;;;;;;66.13;42.33;;;7.10;99.90;;;;;;20533200;28;20274;-40
2024/02/18 17:07:23;;;;;;;65.50;41.33;;;6.70;99.90;;;;;;20534977;28;20176;-41
2024/02/18 17:17:24;;;;;;;59.83;37.50;;;6.30;99.90;;;;;;20536201;28;20183;-42
2024/02/18 17:27:26;;;;;;;63.75;37.75;;;5.90;99.90;;;;;;20536661;28;20171;-40
2024/02/18 17:37:28;;;;;;;57.30;33.58;;;5.60;99.90;;;;;;20531634;28;20219;-39
2024/02/18 17:47:30;;;;;;;50.47;31.60;;;5.10;99.90;;;;;;20534154;28;20901;-43
2024/02/18 17:57:37;;;;;;;44.92;27.20;;;4.70;99.90;;;;;;20536524;28;21308;-41
2024/02/18 18:07:38;;;;;;;50.97;30.25;;;4.30;99.90;;;;;;20531428;28;20656;-40
2024/02/18 18:17:40;;;;;;;51.55;31.48;;;4.20;99.90;;;;;;20530547;28;20158;-41
2024/02/18 18:27:42;;;;;;;47.85;28.95;;;4.20;99.90;;;;;;20529912;28;21699;-42
2024/02/18 18:37:44;;;;;;;65.68;36.63;;;4.20;99.90;;;;;;20530589;28;20183;-42
2024/02/18 18:47:45;;;;;;;65.18;37.80;;;4.20;99.90;;;;;;20530128;28;20507;-41
2024/02/18 18:57:47;;;;;;;59.70;34.40;;;4.30;99.90;;;;;;20526521;28;20581;-41
2024/02/18 19:07:52;;;;;;;47.65;27.52;;;4.20;99.90;;;;;;20525158;28;20042;-40
2024/02/18 19:17:57;;;;;;;56.33;31.83;;;4.30;99.90;;;;;;20524031;28;20824;-40
2024/02/18 19:28:03;;;;;;;56.65;35.58;;;4.40;99.90;;;;;;20523669;28;20132;-42
2024/02/18 19:38:07;;;;;;;55.25;32.60;;;4.50;99.90;;;;;;20525296;28;20101;-41
2024/02/18 19:48:11;;;;;;;59.15;34.55;;;4.60;99.90;;;;;;20524801;28;20233;-42
2024/02/18 19:58:16;;;;;;;65.38;37.97;;;4.60;99.90;;;;;;20521211;28;20636;-42
2024/02/18 20:08:18;;;;;;;50.33;29.70;;;4.40;99.90;;;;;;20522110;28;20164;-40
2024/02/18 20:18:23;;;;;;;48.33;29.33;;;4.10;99.90;;;;;;20524977;28;20247;-42
2024/02/18 20:28:25;;;;;;;51.03;31.08;;;3.90;99.90;;;;;;20504911;28;20207;-44
2024/02/18 20:38:26;;;;;;;49.88;29.20;;;3.70;99.90;;;;;;20522331;28;20132;-43
2024/02/18 20:48:28;;;;;;;55.42;34.00;;;3.80;99.90;;;;;;20522048;28;20250;-41
2024/02/18 20:58:34;;;;;;;51.70;31.95;;;3.90;99.90;;;;;;20522040;28;20149;-41
2024/02/18 21:08:36;;;;;;;52.28;32.00;;;4.10;99.90;;;;;;20518933;28;20155;-43
2024/02/18 21:18:39;;;;;;;52.15;31.05;;;4.20;99.90;;;;;;20521004;28;20144;-41
2024/02/18 21:28:44;;;;;;;39.72;25.52;;;4.20;99.90;;;;;;20516702;28;20850;-42
2024/02/18 21:38:47;;;;;;;35.30;23.88;;;4.30;99.90;;;;;;20523149;28;20180;-41
2024/02/18 21:48:49;;;;;;;41.30;26.55;;;4.20;99.90;;;;;;20502757;28;21089;-42
2024/02/18 21:58:51;;;;;;;37.63;23.45;;;4.20;99.90;;;;;;20533116;28;20171;-44
2024/02/18 22:08:53;;;;;;;43.53;29.15;;;4.10;99.90;;;;;;20531565;28;20042;-41
2024/02/18 22:18:54;;;;;;;64.85;39.55;;;4.20;99.90;;;;;;20529035;28;20128;-41
2024/02/18 22:28:59;;;;;;;55.13;34.10;;;4.80;99.90;;;;;;20526229;28;20041;-40
2024/02/18 22:39:04;;;;;;;52.40;31.63;;;4.90;99.90;;;;;;20528541;28;20937;-41
2024/02/18 22:49:06;;;;;;;42.30;27.95;;;4.90;99.90;;;;;;20432392;28;20083;-42
2024/02/18 22:59:08;;;;;;;43.25;28.42;;;4.70;99.90;;;;;;20435383;28;20062;-41
2024/02/18 23:09:11;;;;;;;47.30;31.63;;;4.50;99.90;;;;;;20430046;28;20062;-40
2024/02/18 23:19:12;;;;;;;43.72;28.83;;;4.80;99.90;;;;;;20448466;28;20128;-41
2024/02/18 23:29:14;;;;;;;43.20;27.95;;;4.80;99.90;;;;;;20525158;28;20088;-41
2024/02/18 23:39:16;;;;;;;42.50;27.98;;;4.70;99.90;;;;;;20521064;28;20102;-41
2024/02/18 23:49:18;;;;;;;43.33;27.02;;;4.80;99.90;;;;;;20523106;28;20150;-41
2024/02/18 23:59:20;;;;;;;34.33;23.08;;;4.70;99.90;;;;;;20523430;28;20152;-41
